KDMN/DMN METAR and TAF weather

Enter ICAO airport designator
Station Type Date Time Source
KDMN METAR 2018/10/19 14:53 UTC NOAA

KDMN 191453Z AUTO 07009KT 10SM OVC024 12/08 A3028 RMK AO2 SLP219 T01220083 53015


Station Type Date Time Source
KDMN Decoded METAR 2018/10/19 14:53 UTC NOAA

DEMING MUNICIPAL AIRPORT, NM, United States (KDMN) 32-16N 107-43W 1311M
Oct 19, 2018 - 10:53 AM EDT / 2018.10.19 1453 UTC
Wind: from the ENE (070 degrees) at 10 MPH (9 KT):0
Visibility: 10 mile(s):0
Sky conditions: overcast
Temperature: 54.0 F (12.2 C)
Dew Point: 46.9 F (8.3 C)
Relative Humidity: 77%
Pressure (altimeter): 30.28 in. Hg (1025 hPa)
Pressure tendency: 0.04 inches (1.5 hPa) higher than three hours ago
ob: KDMN 191453Z AUTO 07009KT 10SM OVC024 12/08 A3028 RMK AO2 SLP219 T01220083 53015
cycle: 15

Station Type Date Time Source
KDMN TAF 2018/10/19 12:34 UTC NOAA

TAF KDMN 191132Z 1912/2012 06006KT P6SM BKN023 BKN050 OVC120
FM191600 07006KT P6SM SCT030 BKN050
FM192100 08005KT P6SM FEW040 SCT070 BKN110
FM200600 06007KT P6SM SCT040 BKN080


Example: see airport list